Hanford Works, Washington
Current Conditions -  °F | °C
As of 10:53 AM on Monday 20 Oct 2014 (Local Time) from KPSC Reporting Station
Haze Haze  
Wind Chill: 62°   Ceiling: Unl
Heat Index: 62°   Visibility: 10mi
Dew Point: 52°   Wind: 0mph
Humidity: 70%   Direction: NA
Pressure: 29.75"   Gusts: NA
Location:  46.3844°N, 119.377°W
Report Text: KPSC 201753Z 00000KT 10SM BR CLR 17/11 A2975 RMK AO2 SLP073 T01670111 10167 20044 50003
Loading
Personal Weather Stations






























Interactive Weather Map
Tropical Storm Tracking
New forecast layout! Learn more

10-Day Weather Forecast

Advertisements
Track Severe Weather on mobile